createdAt,value
2023-05-14T00:01:31.319Z,95547.19
2023-05-14T00:03:57.819Z,95549.84
2023-05-14T00:06:25.807Z,95543.56
2023-05-14T00:08:52.255Z,95546.34
2023-05-14T00:11:18.664Z,95543.97
2023-05-14T00:13:45.107Z,95541.28
2023-05-14T00:16:11.569Z,95547.78
2023-05-14T00:18:38.122Z,95542.13
2023-05-14T00:21:04.638Z,95534.16
2023-05-14T00:23:32.457Z,95542.91
2023-05-14T00:25:58.891Z,95530.72
2023-05-14T00:28:25.438Z,95535.78
2023-05-14T00:30:51.837Z,95544.47
2023-05-14T00:33:18.486Z,95541.66
2023-05-14T00:35:44.911Z,95539.19
2023-05-14T00:38:11.367Z,95539.59
2023-05-14T00:40:39.269Z,95534.31
2023-05-14T00:43:05.704Z,95536.09
2023-05-14T00:45:32.215Z,95534.44
2023-05-14T00:47:58.724Z,95543.78
2023-05-14T00:50:25.324Z,95532.41
2023-05-14T00:52:52.052Z,95537.72
2023-05-14T00:55:18.544Z,95533.84
2023-05-14T00:57:46.522Z,95530.44
2023-05-14T01:00:13.453Z,95530.19
2023-05-14T01:02:39.997Z,95529.34
2023-05-14T01:05:06.676Z,95527.53
2023-05-14T01:07:37.839Z,95527.28
2023-05-14T01:10:06.193Z,95515.31
2023-05-14T01:12:33.863Z,95520.81
2023-05-14T01:15:02.249Z,95519.78
2023-05-14T01:17:29.245Z,95522.41
2023-05-14T01:19:55.762Z,95521.81
2023-05-14T01:22:23.576Z,95521.00
2023-05-14T01:24:50.052Z,95520.63
2023-05-14T01:27:17.368Z,95515.56
2023-05-14T01:29:45.693Z,95509.78
2023-05-14T01:32:12.335Z,95516.81
2023-05-14T01:34:38.886Z,95512.00
2023-05-14T01:37:05.318Z,95508.50
2023-05-14T01:39:34.369Z,95521.50
2023-05-14T01:42:00.817Z,95519.91
2023-05-14T01:44:27.248Z,95509.16
2023-05-14T01:46:53.706Z,95512.19
2023-05-14T01:49:20.252Z,95519.44
2023-05-14T01:51:46.713Z,95509.69
2023-05-14T01:54:13.202Z,95505.31
2023-05-14T01:56:41.010Z,95505.91
2023-05-14T01:59:07.647Z,95497.91
2023-05-14T02:01:34.168Z,95501.53
2023-05-14T02:04:00.763Z,95496.81
2023-05-14T02:06:27.199Z,95508.94
2023-05-14T02:08:53.647Z,95502.66
2023-05-14T02:11:20.069Z,95504.09
2023-05-14T02:13:48.027Z,95504.28
2023-05-14T02:16:14.517Z,95497.94
2023-05-14T02:18:41.076Z,95496.81
2023-05-14T02:21:07.596Z,95497.41
2023-05-14T02:23:41.185Z,95494.38
2023-05-14T02:26:09.046Z,95495.75
2023-05-14T02:28:35.501Z,95494.78
2023-05-14T02:31:03.499Z,95495.47
2023-05-14T02:33:30.095Z,95496.81
2023-05-14T02:35:56.605Z,95503.03
2023-05-14T02:38:23.112Z,95500.66
2023-05-14T02:40:49.553Z,95499.19
2023-05-14T02:43:16.004Z,95495.94
2023-05-14T02:45:42.487Z,95495.09
2023-05-14T02:48:10.331Z,95486.53
2023-05-14T02:50:36.815Z,95492.84
2023-05-14T02:53:03.238Z,95490.28
2023-05-14T02:55:29.677Z,95492.38
2023-05-14T02:57:56.109Z,95486.75
2023-05-14T03:00:22.837Z,95491.31
2023-05-14T03:02:49.807Z,95484.91
2023-05-14T03:05:18.072Z,95484.13
2023-05-14T03:07:44.531Z,95486.06
2023-05-14T03:10:10.979Z,95484.09
2023-05-14T03:12:37.417Z,95484.25
2023-05-14T03:15:04.028Z,95477.47
2023-05-14T03:17:30.499Z,95487.34
2023-05-14T03:19:57.028Z,95487.59
2023-05-14T03:22:24.964Z,95475.69
2023-05-14T03:24:51.444Z,95475.88
2023-05-14T03:27:17.855Z,95476.28
2023-05-14T03:29:44.319Z,95476.94
2023-05-14T03:32:10.750Z,95472.88
2023-05-14T03:34:37.238Z,95473.28
2023-05-14T03:37:03.867Z,95470.06
2023-05-14T03:39:31.659Z,95473.69
2023-05-14T03:41:58.207Z,95466.44
2023-05-14T03:44:24.759Z,95473.50
2023-05-14T03:46:51.332Z,95462.75
2023-05-14T03:49:17.797Z,95465.19
2023-05-14T03:51:44.260Z,95465.41
2023-05-14T03:54:10.706Z,95459.94
2023-05-14T03:56:38.511Z,95465.81
2023-05-14T03:59:05.028Z,95468.63
2023-05-14T04:01:31.498Z,95461.91
2023-05-14T04:03:58.101Z,95458.09
2023-05-14T04:06:24.628Z,95469.13
2023-05-14T04:08:51.049Z,95462.50
2023-05-14T04:11:17.568Z,95470.72
2023-05-14T04:13:45.358Z,95470.69
2023-05-14T04:16:11.829Z,95468.41
2023-05-14T04:18:38.371Z,95466.00
2023-05-14T04:21:05.033Z,95460.66
2023-05-14T04:23:31.493Z,95461.06
2023-05-14T04:25:57.939Z,95461.69
2023-05-14T04:28:24.424Z,95463.88
2023-05-14T04:30:52.879Z,95464.31
2023-05-14T04:33:19.325Z,95470.44
2023-05-14T04:35:45.835Z,95472.28
2023-05-14T04:38:12.299Z,95473.72
2023-05-14T04:40:38.769Z,95466.44
2023-05-14T04:43:05.206Z,95474.50
2023-05-14T04:45:34.003Z,95475.38
2023-05-14T04:48:02.189Z,95466.41
2023-05-14T04:50:28.685Z,95472.50
2023-05-14T04:52:55.122Z,95467.41
2023-05-14T04:55:21.615Z,95469.84
2023-05-14T04:57:48.061Z,95466.81
2023-05-14T05:00:15.042Z,95468.47
2023-05-14T05:02:41.624Z,95475.13
2023-05-14T05:05:09.975Z,95477.34
2023-05-14T05:07:36.446Z,95485.13
2023-05-14T05:10:02.910Z,95475.25
2023-05-14T05:12:29.398Z,95467.63
2023-05-14T05:14:56.137Z,95470.88
2023-05-14T05:17:22.566Z,95473.69
2023-05-14T05:19:49.038Z,95471.09
2023-05-14T05:22:16.886Z,95473.69
2023-05-14T05:24:43.372Z,95472.88
2023-05-14T05:27:09.860Z,95474.97
2023-05-14T05:29:36.284Z,95470.06
2023-05-14T05:32:02.791Z,95473.50
2023-05-14T05:34:29.241Z,95479.41
2023-05-14T05:36:55.711Z,95475.16
2023-05-14T05:39:23.506Z,95466.22
2023-05-14T05:41:49.939Z,95477.38
2023-05-14T05:44:16.417Z,95477.56
2023-05-14T05:46:43.021Z,95478.19
2023-05-14T05:49:09.492Z,95467.63
2023-05-14T05:51:35.968Z,95478.16
2023-05-14T05:54:02.443Z,95482.25
2023-05-14T05:56:30.437Z,95483.06
2023-05-14T05:58:56.873Z,95478.19
2023-05-14T06:01:23.300Z,95488.09
2023-05-14T06:03:49.710Z,95478.16
2023-05-14T06:06:16.159Z,95478.97
2023-05-14T06:08:42.618Z,95482.41
2023-05-14T06:11:09.065Z,95491.09
2023-05-14T06:13:36.888Z,95485.28
2023-05-14T06:16:03.442Z,95483.47
2023-05-14T06:18:29.900Z,95479.00
2023-05-14T06:20:56.452Z,95478.56
2023-05-14T06:23:22.912Z,95478.97
2023-05-14T06:25:50.672Z,95480.38
2023-05-14T06:28:17.388Z,95475.94
2023-05-14T06:30:45.280Z,95477.34
2023-05-14T06:33:11.756Z,95476.13
2023-05-14T06:35:38.266Z,95471.47
2023-05-14T06:38:04.726Z,95459.03
2023-05-14T06:40:31.158Z,95470.47
2023-05-14T06:42:57.558Z,95468.22
2023-05-14T06:45:24.084Z,95461.69
2023-05-14T06:47:52.034Z,95473.09
2023-05-14T06:50:18.546Z,95470.63
2023-05-14T06:52:44.977Z,95469.88
2023-05-14T06:55:11.453Z,95476.97
2023-05-14T06:57:40.502Z,95468.38
2023-05-14T07:00:07.848Z,95474.78
2023-05-14T07:02:34.447Z,95468.72
2023-05-14T07:05:02.254Z,95471.38
2023-05-14T07:07:28.706Z,95475.75
2023-05-14T07:09:55.130Z,95473.47
2023-05-14T07:12:21.579Z,95474.09
2023-05-14T07:14:48.051Z,95473.22
2023-05-14T07:17:14.966Z,95471.94
2023-05-14T07:19:41.423Z,95471.03
2023-05-14T07:22:09.305Z,95463.13
2023-05-14T07:24:35.742Z,95461.16
2023-05-14T07:27:02.174Z,95455.91
2023-05-14T07:29:28.598Z,95448.00
2023-05-14T07:31:55.096Z,95444.53
2023-05-14T07:34:21.555Z,95451.47
2023-05-14T07:36:47.995Z,95448.81
2023-05-14T07:39:15.831Z,95450.25
2023-05-14T07:41:42.289Z,95450.81
2023-05-14T07:44:08.692Z,95449.41
2023-05-14T07:46:36.256Z,95452.88
2023-05-14T07:49:02.905Z,95450.03
2023-05-14T07:51:29.393Z,95448.00
2023-05-14T07:53:55.838Z,95445.38
2023-05-14T07:56:23.655Z,95447.75
2023-05-14T07:58:50.067Z,95445.75
2023-05-14T08:01:16.510Z,95437.69
2023-05-14T08:03:43.090Z,95439.69
2023-05-14T08:06:09.613Z,95436.88
2023-05-14T08:08:36.108Z,95433.97
2023-05-14T08:11:02.955Z,95431.22
2023-05-14T08:13:30.801Z,95421.88
2023-05-14T08:15:57.335Z,95427.28
2023-05-14T08:18:23.767Z,95430.13
2023-05-14T08:20:50.184Z,95424.66
2023-05-14T08:23:16.758Z,95430.44
2023-05-14T08:25:43.188Z,95431.88
2023-05-14T08:28:09.704Z,95444.16
2023-05-14T08:30:37.693Z,95434.03
2023-05-14T08:33:04.251Z,95433.38
2023-05-14T08:35:30.693Z,95440.94
2023-05-14T08:37:57.194Z,95448.19
2023-05-14T08:40:23.917Z,95452.69
2023-05-14T08:42:50.868Z,95441.22
2023-05-14T08:45:18.460Z,95437.81
2023-05-14T08:47:46.489Z,95443.97
2023-05-14T08:50:13.089Z,95442.94
2023-05-14T08:52:39.546Z,95444.13
2023-05-14T08:55:06.538Z,95439.69
2023-05-14T08:57:33.271Z,95439.41
2023-05-14T08:59:59.787Z,95442.72
2023-05-14T09:02:28.198Z,95438.50
2023-05-14T09:04:57.106Z,95438.88
2023-05-14T09:07:23.705Z,95436.91
2023-05-14T09:09:50.324Z,95434.03
2023-05-14T09:12:16.741Z,95435.59
2023-05-14T09:14:43.590Z,95437.31
2023-05-14T09:17:10.054Z,95433.22
2023-05-14T09:19:36.461Z,95430.78
2023-05-14T09:22:09.612Z,95429.19
2023-05-14T09:24:36.088Z,95429.81
2023-05-14T09:27:02.513Z,95430.00
2023-05-14T09:29:29.237Z,95427.13
2023-05-14T09:31:55.817Z,95422.22
2023-05-14T09:34:25.903Z,95428.69
2023-05-14T09:36:54.450Z,95428.78
2023-05-14T09:39:22.320Z,95437.50
2023-05-14T09:41:48.761Z,95428.78
2023-05-14T09:44:15.214Z,95422.63
2023-05-14T09:46:41.664Z,95423.31
2023-05-14T09:49:08.104Z,95420.97
2023-05-14T09:51:34.518Z,95421.06
2023-05-14T09:54:01.060Z,95427.88
2023-05-14T09:56:28.852Z,95422.59
2023-05-14T09:58:55.267Z,95420.44
2023-05-14T10:01:21.852Z,95410.69
2023-05-14T10:03:48.340Z,95418.22
2023-05-14T10:06:15.278Z,95413.25
2023-05-14T10:08:42.906Z,95411.09
2023-05-14T10:11:11.140Z,95413.59
2023-05-14T10:13:42.414Z,95407.63
2023-05-14T10:16:11.456Z,95412.34
2023-05-14T10:18:40.062Z,95419.00
2023-05-14T10:21:06.954Z,95423.84
2023-05-14T10:23:33.439Z,95414.72
2023-05-14T10:25:59.904Z,95423.19
2023-05-14T10:28:26.363Z,95425.81
2023-05-14T10:30:54.284Z,95427.97
2023-05-14T10:33:20.759Z,95429.44
2023-05-14T10:35:57.248Z,95415.16
2023-05-14T10:38:25.064Z,95414.63
2023-05-14T10:40:54.105Z,95413.59
2023-05-14T10:43:20.947Z,95413.63
2023-05-14T10:45:47.371Z,95417.28
2023-05-14T10:48:15.381Z,95416.34
2023-05-14T10:50:41.966Z,95416.59
2023-05-14T10:53:10.604Z,95416.47
2023-05-14T10:55:37.062Z,95416.50
2023-05-14T10:58:04.019Z,95411.59
2023-05-14T11:00:30.552Z,95408.72
2023-05-14T11:02:57.361Z,95404.84
2023-05-14T11:05:25.331Z,95410.22
2023-05-14T11:07:51.860Z,95409.78
2023-05-14T11:10:19.050Z,95420.75
2023-05-14T11:12:45.971Z,95417.22
2023-05-14T11:15:12.961Z,95414.34
2023-05-14T11:17:40.206Z,95416.84
2023-05-14T11:20:07.288Z,95418.09
2023-05-14T11:22:35.375Z,95405.47
2023-05-14T11:25:01.872Z,95405.66
2023-05-14T11:27:28.313Z,95406.44
2023-05-14T11:29:54.774Z,95401.94
2023-05-14T11:32:21.329Z,95388.28
2023-05-14T11:34:47.826Z,95392.25
2023-05-14T11:37:14.528Z,95387.88
2023-05-14T11:39:47.335Z,95392.31
2023-05-14T11:42:14.030Z,95380.28
2023-05-14T11:44:40.571Z,95386.25
2023-05-14T11:47:07.035Z,95378.19
2023-05-14T11:49:33.447Z,95386.25
2023-05-14T11:52:00.315Z,95370.66
2023-05-14T11:54:27.048Z,95366.63
2023-05-14T11:56:55.191Z,95375.31
2023-05-14T11:59:21.613Z,95368.69
2023-05-14T12:01:50.651Z,95367.75
2023-05-14T12:04:17.748Z,95365.03
2023-05-14T12:06:44.250Z,95357.28
2023-05-14T12:09:12.355Z,95355.19
2023-05-14T12:11:38.782Z,95347.91
2023-05-14T12:14:11.857Z,95341.19
2023-05-14T12:16:39.743Z,95342.84
2023-05-14T12:19:06.506Z,95339.38
2023-05-14T12:21:34.376Z,95334.69
2023-05-14T12:24:00.940Z,95336.06
2023-05-14T12:26:27.391Z,95325.41
2023-05-14T12:28:56.920Z,95334.19
2023-05-14T12:31:31.709Z,95339.16
2023-05-14T12:37:04.232Z,95326.50
2023-05-14T12:39:34.318Z,95323.19
2023-05-14T12:42:00.826Z,95322.34
2023-05-14T12:44:27.419Z,95321.66
2023-05-14T12:46:55.283Z,95308.31
2023-05-14T12:49:21.893Z,95309.25
2023-05-14T12:51:48.399Z,95300.34
2023-05-14T12:54:17.739Z,95297.50
2023-05-14T12:56:44.226Z,95298.16
2023-05-14T12:59:10.646Z,95294.94
2023-05-14T13:01:37.316Z,95292.44
2023-05-14T13:04:05.503Z,95293.25
2023-05-14T13:06:32.118Z,95283.69
2023-05-14T13:08:58.541Z,95282.53
2023-05-14T13:11:25.189Z,95278.28
2023-05-14T13:13:51.614Z,95266.78
2023-05-14T13:16:18.124Z,95269.41
2023-05-14T13:18:44.632Z,95257.91
2023-05-14T13:21:12.476Z,95257.13
2023-05-14T13:23:38.947Z,95254.66
2023-05-14T13:26:05.376Z,95253.31
2023-05-14T13:28:31.828Z,95255.81
2023-05-14T13:31:05.905Z,95254.00
2023-05-14T13:33:32.786Z,95245.69
2023-05-14T13:35:59.197Z,95244.91
2023-05-14T13:38:27.028Z,95245.59
2023-05-14T13:40:53.490Z,95240.22
2023-05-14T13:43:19.958Z,95239.50
2023-05-14T13:45:52.631Z,95233.09
2023-05-14T13:48:19.167Z,95236.34
2023-05-14T13:50:45.581Z,95226.06
2023-05-14T13:53:12.101Z,95223.94
2023-05-14T13:55:39.885Z,95217.44
2023-05-14T13:58:06.346Z,95215.44
2023-05-14T14:00:32.858Z,95212.63
2023-05-14T14:02:59.344Z,95216.63
2023-05-14T14:05:26.145Z,95200.31
2023-05-14T14:07:54.758Z,95202.91
2023-05-14T14:10:33.129Z,95202.66
2023-05-14T14:13:01.013Z,95196.72
2023-05-14T14:15:27.447Z,95197.50
2023-05-14T14:17:54.148Z,95189.88
2023-05-14T14:20:20.622Z,95195.00
2023-05-14T14:22:47.092Z,95195.53
2023-05-14T14:25:13.532Z,95197.25
2023-05-14T14:27:40.023Z,95184.88
2023-05-14T14:30:09.197Z,95181.50
2023-05-14T14:32:35.698Z,95178.06
2023-05-14T14:35:02.172Z,95165.94
2023-05-14T14:37:28.588Z,95162.91
2023-05-14T14:39:55.039Z,95155.25
2023-05-14T14:42:21.443Z,95155.03
2023-05-14T14:44:47.841Z,95154.28
2023-05-14T14:47:15.709Z,95147.00
2023-05-14T14:49:42.152Z,95153.06
2023-05-14T14:52:08.589Z,95156.41
2023-05-14T14:54:35.004Z,95150.50
2023-05-14T14:57:01.588Z,95156.44
2023-05-14T14:59:28.068Z,95156.09
2023-05-14T15:01:54.888Z,95159.66
2023-05-14T15:04:22.802Z,95164.16
2023-05-14T15:06:49.248Z,95156.34
2023-05-14T15:09:15.729Z,95149.59
2023-05-14T15:11:42.206Z,95148.00
2023-05-14T15:14:08.655Z,95139.56
2023-05-14T15:16:35.117Z,95139.78
2023-05-14T15:19:01.631Z,95134.13
2023-05-14T15:21:29.759Z,95132.31
2023-05-14T15:23:56.205Z,95122.75
2023-05-14T15:26:22.627Z,95131.75
2023-05-14T15:28:49.126Z,95128.78
2023-05-14T15:31:15.719Z,95138.28
2023-05-14T15:33:42.235Z,95135.88
2023-05-14T15:36:08.875Z,95144.13
2023-05-14T15:38:36.773Z,95127.47
2023-05-14T15:41:03.197Z,95125.84
2023-05-14T15:43:29.629Z,95121.50
2023-05-14T15:45:56.067Z,95124.41
2023-05-14T15:48:22.655Z,95119.09
2023-05-14T15:50:49.771Z,95128.25
2023-05-14T15:53:16.406Z,95128.56
2023-05-14T15:55:44.238Z,95117.19
2023-05-14T15:58:10.682Z,95121.72
2023-05-14T16:00:37.117Z,95120.88
2023-05-14T16:03:03.797Z,95120.28
2023-05-14T16:05:30.244Z,95123.66
2023-05-14T16:07:56.648Z,95137.75
2023-05-14T16:10:23.507Z,95139.97
2023-05-14T16:12:51.578Z,95134.25
2023-05-14T16:15:18.018Z,95148.78
2023-05-14T16:17:44.532Z,95160.00
2023-05-14T16:20:11.831Z,95176.09
2023-05-14T16:22:38.283Z,95171.91
2023-05-14T16:25:05.108Z,95178.44
2023-05-14T16:27:31.663Z,95180.47
2023-05-14T16:29:59.642Z,95184.22
2023-05-14T16:32:26.178Z,95188.47
2023-05-14T16:34:52.760Z,95191.78
2023-05-14T16:37:19.318Z,95194.94
2023-05-14T16:39:45.744Z,95193.97
2023-05-14T16:42:12.201Z,95197.63
2023-05-14T16:44:38.638Z,95203.00
2023-05-14T16:47:07.012Z,95201.09
2023-05-14T16:49:33.425Z,95203.84
2023-05-14T16:51:59.881Z,95205.16
2023-05-14T16:54:26.339Z,95204.69
2023-05-14T16:56:52.768Z,95208.16
2023-05-14T16:59:19.203Z,95211.88
2023-05-14T17:01:45.665Z,95216.22
2023-05-14T17:04:13.617Z,95219.06
2023-05-14T17:06:40.088Z,95209.63
2023-05-14T17:09:06.554Z,95212.50
2023-05-14T17:11:32.982Z,95213.38
2023-05-14T17:13:59.393Z,95211.44
2023-05-14T17:16:25.858Z,95210.16
2023-05-14T17:18:52.386Z,95215.50
2023-05-14T17:21:20.257Z,95214.50
2023-05-14T17:23:46.733Z,95218.59
2023-05-14T17:26:13.256Z,95216.19
2023-05-14T17:28:39.715Z,95215.81
2023-05-14T17:31:06.216Z,95223.72
2023-05-14T17:33:32.822Z,95228.22
2023-05-14T17:35:59.271Z,95229.22
2023-05-14T17:38:27.080Z,95227.84
2023-05-14T17:40:53.538Z,95230.91
2023-05-14T17:43:19.956Z,95219.91
2023-05-14T17:45:53.838Z,95222.16
2023-05-14T17:48:21.491Z,95216.06
2023-05-14T17:50:47.931Z,95213.78
2023-05-14T17:53:17.536Z,95219.28
2023-05-14T17:55:45.349Z,95226.34
2023-05-14T17:58:11.786Z,95229.47
2023-05-14T18:00:38.297Z,95236.22
2023-05-14T18:03:04.956Z,95234.03
2023-05-14T18:05:31.492Z,95231.97
2023-05-14T18:07:57.948Z,95227.59
2023-05-14T18:10:24.419Z,95225.91
2023-05-14T18:12:52.222Z,95226.03
2023-05-14T18:15:19.145Z,95227.66
2023-05-14T18:17:45.643Z,95219.38
2023-05-14T18:20:12.190Z,95230.09
2023-05-14T18:22:38.670Z,95229.53
2023-05-14T18:25:05.625Z,95221.06
2023-05-14T18:27:32.114Z,95222.84
2023-05-14T18:29:59.893Z,95216.56
2023-05-14T18:32:28.321Z,95226.41
2023-05-14T18:34:54.775Z,95229.97
2023-05-14T18:37:21.254Z,95239.69
2023-05-14T18:39:47.728Z,95240.25
2023-05-14T18:42:14.211Z,95231.16
2023-05-14T18:44:40.608Z,95244.00
2023-05-14T18:47:08.449Z,95237.19
2023-05-14T18:49:34.900Z,95236.78
2023-05-14T18:52:01.342Z,95229.59
2023-05-14T18:54:27.811Z,95235.13
2023-05-14T18:56:54.236Z,95236.03
2023-05-14T18:59:20.679Z,95237.19
2023-05-14T19:01:47.144Z,95239.31
2023-05-14T19:04:15.286Z,95239.69
2023-05-14T19:06:44.458Z,95253.91
2023-05-14T19:09:10.906Z,95244.19
2023-05-14T19:11:37.366Z,95245.38
2023-05-14T19:14:03.942Z,95244.94
2023-05-14T19:16:30.420Z,95240.66
2023-05-14T19:18:57.028Z,95239.63
2023-05-14T19:21:24.913Z,95242.56
2023-05-14T19:23:52.622Z,95241.53
2023-05-14T19:26:19.042Z,95246.06
2023-05-14T19:28:45.496Z,95251.97
2023-05-14T19:31:11.932Z,95249.19
2023-05-14T19:33:38.413Z,95248.97
2023-05-14T19:36:05.145Z,95253.50
2023-05-14T19:38:33.274Z,95254.44
2023-05-14T19:40:59.843Z,95258.53
2023-05-14T19:43:26.281Z,95252.06
2023-05-14T19:45:52.725Z,95255.31
2023-05-14T19:48:19.218Z,95253.03
2023-05-14T19:50:45.669Z,95250.44
2023-05-14T19:53:12.106Z,95249.72
2023-05-14T19:55:39.942Z,95253.97
2023-05-14T19:58:06.466Z,95252.03
2023-05-14T20:00:32.960Z,95250.97
2023-05-14T20:03:08.750Z,95260.63
2023-05-14T20:05:35.315Z,95264.91
2023-05-14T20:08:01.818Z,95260.72
2023-05-14T20:10:30.157Z,95255.16
2023-05-14T20:12:57.967Z,95260.31
2023-05-14T20:15:24.455Z,95262.78
2023-05-14T20:17:50.980Z,95260.25
2023-05-14T20:20:17.542Z,95257.63
2023-05-14T20:22:44.017Z,95257.41
2023-05-14T20:25:10.521Z,95254.22
2023-05-14T20:27:37.000Z,95264.00
2023-05-14T20:30:06.029Z,95254.06
2023-05-14T20:32:32.483Z,95261.06
2023-05-14T20:34:58.952Z,95249.16
2023-05-14T20:37:25.350Z,95252.38
2023-05-14T20:39:51.803Z,95251.47
2023-05-14T20:42:18.316Z,95257.56
2023-05-14T20:44:44.728Z,95256.84
2023-05-14T20:47:12.722Z,95258.59
2023-05-14T20:49:39.163Z,95257.84
2023-05-14T20:52:08.405Z,95255.28
2023-05-14T20:54:34.831Z,95250.59
2023-05-14T20:57:01.272Z,95253.34
2023-05-14T20:59:27.683Z,95247.84
2023-05-14T21:01:54.155Z,95249.22
2023-05-14T21:04:22.235Z,95243.56
2023-05-14T21:06:48.865Z,95243.72
2023-05-14T21:09:15.326Z,95240.94
2023-05-14T21:11:41.733Z,95242.03
2023-05-14T21:14:08.194Z,95234.22
2023-05-14T21:16:35.163Z,95236.47
2023-05-14T21:19:01.667Z,95248.22
2023-05-14T21:21:29.505Z,95243.50
2023-05-14T21:23:55.977Z,95240.19
2023-05-14T21:26:22.404Z,95232.91
2023-05-14T21:28:48.853Z,95237.84
2023-05-14T21:31:15.337Z,95236.59
2023-05-14T21:33:41.814Z,95232.41
2023-05-14T21:36:08.412Z,95226.91
2023-05-14T21:38:36.220Z,95229.34
2023-05-14T21:41:02.672Z,95236.84
2023-05-14T21:43:29.090Z,95242.94
2023-05-14T21:45:55.576Z,95237.63
2023-05-14T21:48:22.062Z,95236.13
2023-05-14T21:50:48.580Z,95246.31
2023-05-14T21:53:15.100Z,95240.75
2023-05-14T21:55:42.943Z,95237.94
2023-05-14T21:58:09.379Z,95232.44
2023-05-14T22:00:35.841Z,95226.16
2023-05-14T22:03:02.397Z,95227.31
2023-05-14T22:05:29.061Z,95227.09
2023-05-14T22:07:55.773Z,95233.38
2023-05-14T22:10:22.304Z,95236.50
2023-05-14T22:12:50.159Z,95236.66
2023-05-14T22:15:16.574Z,95230.47
2023-05-14T22:17:43.037Z,95238.19
2023-05-14T22:20:09.690Z,95234.78
2023-05-14T22:22:36.188Z,95245.47
2023-05-14T22:27:30.276Z,95241.44
2023-05-14T22:29:58.073Z,95236.94
2023-05-14T22:32:24.664Z,95237.31
2023-05-14T22:34:51.088Z,95231.81
2023-05-14T22:37:17.535Z,95239.28
2023-05-14T22:39:43.936Z,95230.75
2023-05-14T22:42:10.388Z,95232.19
2023-05-14T22:44:36.880Z,95226.53
2023-05-14T22:47:04.944Z,95220.56
2023-05-14T22:49:31.466Z,95223.03
2023-05-14T22:51:57.892Z,95218.31
2023-05-14T22:54:24.493Z,95216.38
2023-05-14T22:56:50.946Z,95217.19
2023-05-14T22:59:17.436Z,95215.69
2023-05-14T23:01:43.942Z,95220.06
2023-05-14T23:04:11.939Z,95211.06
2023-05-14T23:06:38.435Z,95213.47
2023-05-14T23:09:04.900Z,95205.44
2023-05-14T23:11:31.409Z,95216.38
2023-05-14T23:13:57.878Z,95211.53
2023-05-14T23:16:24.334Z,95214.38
2023-05-14T23:18:51.257Z,95208.66
2023-05-14T23:21:19.235Z,95211.41
2023-05-14T23:23:45.715Z,95206.22
2023-05-14T23:26:12.144Z,95208.31
2023-05-14T23:28:38.572Z,95198.25
2023-05-14T23:31:05.065Z,95196.63
2023-05-14T23:33:31.497Z,95194.00
2023-05-14T23:35:58.015Z,95193.78
2023-05-14T23:38:25.852Z,95195.25
2023-05-14T23:40:52.337Z,95193.81
2023-05-14T23:43:18.783Z,95194.59
2023-05-14T23:45:45.263Z,95195.78
2023-05-14T23:48:11.672Z,95192.19
2023-05-14T23:50:38.121Z,95194.22
2023-05-14T23:53:04.580Z,95188.53
2023-05-14T23:55:32.394Z,95184.06
2023-05-14T23:57:58.784Z,95182.03
